Park Rapids, Minnesota
Current Conditions -  °F | °C
As of 8:53 PM on Saturday 25 Oct 2014 (Local Time) from KPKD Reporting Station
Clear Clear  
Wind Chill:   Ceiling: Unl
Heat Index:   Visibility: 10mi
Dew Point: -5°   Wind: 5mph
Humidity: 49%   Direction: 270°W
Pressure: 30.02"   Gusts: NA
Location:  46.92°N, 95.06°W
Report Text: KPKD 260153Z AUTO 27004KT 10SM CLR 05/M05 A3002 RMK AO2 SLP180 T00501050 TSNO $
Loading
Personal Weather Stations






























Interactive Weather Map
Tropical Storm Tracking
New forecast layout! Learn more

10-Day Weather Forecast

Advertisements
Track Severe Weather on mobile